Time;durP1;ratioP1;P1;durP2;ratioP2;P2;SDS_P1;SDS_P2;PMS_P1;PMS_P2;Temp;Humidity;BMP_temperature;BMP_pressure;BME280_temperature;BME280_humidity;BME280_pressure;Samples;Min_cycle;Max_cycle;Signal;HPM_P1;HPM_P2
2023/05/07 00:02:02;;;;;;;3.08;2.83;;;23.30;44.50;;;;;;4993058;28;20054;-57
2023/05/07 00:04:35;;;;;;;2.67;2.47;;;23.30;44.60;;;;;;4992524;28;20145;-57
2023/05/07 00:07:03;;;;;;;2.42;2.22;;;23.30;44.60;;;;;;4993740;28;20127;-57
2023/05/07 00:09:30;;;;;;;2.35;2.25;;;23.30;44.60;;;;;;4991920;28;20046;-57
2023/05/07 00:11:57;;;;;;;2.65;2.45;;;23.30;44.70;;;;;;4992314;28;20050;-57
2023/05/07 00:14:24;;;;;;;2.80;2.60;;;23.30;44.70;;;;;;4992370;28;20499;-57
2023/05/07 00:16:51;;;;;;;3.03;2.83;;;23.30;44.70;;;;;;4993663;28;20060;-57
2023/05/07 00:19:19;;;;;;;2.90;2.42;;;23.30;44.70;;;;;;4992975;28;20419;-57
2023/05/07 00:21:46;;;;;;;2.50;2.30;;;23.30;44.70;;;;;;4993728;28;20042;-57
2023/05/07 00:24:13;;;;;;;2.72;2.53;;;23.30;44.70;;;;;;4997227;28;20073;-57
2023/05/07 00:26:40;;;;;;;3.17;2.53;;;23.30;44.70;;;;;;4996767;28;20050;-57
2023/05/07 00:29:07;;;;;;;2.95;2.75;;;23.30;44.70;;;;;;4996759;28;20050;-57
2023/05/07 00:31:35;;;;;;;3.38;2.47;;;23.20;44.70;;;;;;4996987;28;20133;-57
2023/05/07 00:34:02;;;;;;;2.65;2.45;;;23.30;44.70;;;;;;4995639;28;20093;-57
2023/05/07 00:36:30;;;;;;;2.13;2.03;;;23.30;44.70;;;;;;4996414;28;20053;-57
2023/05/07 00:38:59;;;;;;;2.65;2.45;;;23.30;44.70;;;;;;4995507;28;20562;-57
2023/05/07 00:41:27;;;;;;;2.60;2.40;;;23.30;44.60;;;;;;4995838;28;20050;-57
2023/05/07 00:43:54;;;;;;;2.90;2.70;;;23.30;44.60;;;;;;4996151;28;20089;-57
2023/05/07 00:46:21;;;;;;;2.65;2.45;;;23.30;44.60;;;;;;4996114;28;20049;-57
2023/05/07 00:48:50;;;;;;;2.80;2.60;;;23.30;44.60;;;;;;4996154;28;20047;-57
2023/05/07 00:51:18;;;;;;;2.80;2.60;;;23.30;44.60;;;;;;4996461;28;20046;-57
2023/05/07 00:53:46;;;;;;;2.75;2.60;;;23.30;44.60;;;;;;4996205;28;20057;-57
2023/05/07 00:56:13;;;;;;;2.95;2.75;;;23.30;44.60;;;;;;4996362;28;20046;-57
2023/05/07 00:58:40;;;;;;;2.88;2.42;;;23.30;44.70;;;;;;4994710;28;20406;-57
2023/05/07 01:01:08;;;;;;;3.33;3.03;;;23.30;44.70;;;;;;4995977;28;20050;-57
2023/05/07 01:03:35;;;;;;;3.00;2.80;;;23.20;44.60;;;;;;4994979;28;20054;-57
2023/05/07 01:06:04;;;;;;;2.92;2.65;;;23.30;44.60;;;;;;4996144;28;20054;-57
2023/05/07 01:08:34;;;;;;;3.15;2.90;;;23.30;44.60;;;;;;4994033;28;20042;-57
2023/05/07 01:11:02;;;;;;;2.90;2.70;;;23.30;44.70;;;;;;4996267;28;20050;-57
2023/05/07 01:13:29;;;;;;;2.95;2.75;;;23.20;44.60;;;;;;4995705;28;20053;-57
2023/05/07 01:15:56;;;;;;;2.53;2.33;;;23.20;44.60;;;;;;4995476;28;20129;-57
2023/05/07 01:18:25;;;;;;;2.58;2.38;;;23.20;44.70;;;;;;4995321;28;20050;-57
2023/05/07 01:20:54;;;;;;;4.10;2.97;;;23.20;44.70;;;;;;4996146;28;20133;-57
2023/05/07 01:23:22;;;;;;;2.88;2.67;;;23.20;44.70;;;;;;4995367;28;20065;-57
2023/05/07 01:25:53;;;;;;;3.25;2.78;;;23.20;44.70;;;;;;4995001;28;20060;-57
2023/05/07 01:28:20;;;;;;;3.25;3.05;;;23.20;44.70;;;;;;4995453;28;20054;-57
2023/05/07 01:30:53;;;;;;;3.17;2.88;;;23.20;44.80;;;;;;4995789;28;20046;-57
2023/05/07 01:33:22;;;;;;;2.63;2.42;;;23.10;44.80;;;;;;4993986;28;20051;-57
2023/05/07 01:35:52;;;;;;;2.90;2.67;;;23.10;44.90;;;;;;4995520;28;20057;-57
2023/05/07 01:38:22;;;;;;;2.70;2.50;;;23.10;44.90;;;;;;4995202;28;20137;-57
2023/05/07 01:40:50;;;;;;;3.38;3.08;;;23.10;45.00;;;;;;4995690;28;20125;-57
2023/05/07 01:43:17;;;;;;;2.83;2.63;;;23.10;45.00;;;;;;4995155;28;20417;-57
2023/05/07 01:45:45;;;;;;;3.08;2.80;;;23.10;45.00;;;;;;4994781;28;20076;-57
2023/05/07 01:48:15;;;;;;;3.10;2.80;;;23.10;45.10;;;;;;4995437;28;20046;-58
2023/05/07 01:50:43;;;;;;;2.80;2.50;;;23.10;45.10;;;;;;4995561;28;20133;-56
2023/05/07 01:53:10;;;;;;;2.85;2.65;;;23.10;45.10;;;;;;4994577;28;20046;-57
2023/05/07 01:55:37;;;;;;;3.03;2.80;;;23.10;45.10;;;;;;4994553;28;20050;-57
2023/05/07 01:58:04;;;;;;;2.92;2.72;;;23.10;45.10;;;;;;4995443;28;20129;-57
2023/05/07 02:00:32;;;;;;;2.65;2.45;;;23.10;45.00;;;;;;4994665;28;20061;-57
2023/05/07 02:02:59;;;;;;;3.30;3.00;;;23.10;45.00;;;;;;4994416;28;20133;-57
2023/05/07 02:05:26;;;;;;;2.97;2.67;;;23.10;45.00;;;;;;4994349;28;20054;-57
2023/05/07 02:07:53;;;;;;;2.70;2.45;;;23.10;45.00;;;;;;4994570;28;20437;-57
2023/05/07 02:10:20;;;;;;;2.88;2.67;;;23.10;45.00;;;;;;4994922;28;20057;-57
2023/05/07 02:12:48;;;;;;;2.92;2.72;;;23.10;44.90;;;;;;4995073;28;20072;-57
2023/05/07 02:15:15;;;;;;;3.10;2.80;;;23.10;44.90;;;;;;4994432;28;20061;-58
2023/05/07 02:18:03;;;;;;;2.50;2.30;;;23.20;44.90;;;;;;4995080;28;20431;-57
2023/05/07 02:20:30;;;;;;;2.67;2.47;;;23.10;44.90;;;;;;4994526;28;20085;-57
2023/05/07 02:22:57;;;;;;;2.65;2.45;;;23.20;44.90;;;;;;4994152;28;20042;-57
2023/05/07 02:25:25;;;;;;;3.08;2.63;;;23.20;44.90;;;;;;4994373;28;20415;-57
2023/05/07 02:27:52;;;;;;;2.80;2.22;;;23.10;44.90;;;;;;4994653;28;20133;-57
2023/05/07 02:30:21;;;;;;;3.13;2.85;;;23.10;44.90;;;;;;4994372;28;20054;-60
2023/05/07 02:32:48;;;;;;;3.35;2.75;;;23.10;44.90;;;;;;4994319;28;20418;-57
2023/05/07 02:35:15;;;;;;;2.90;2.60;;;23.10;44.90;;;;;;4993970;28;20446;-56
2023/05/07 02:37:42;;;;;;;3.00;2.60;;;23.20;44.90;;;;;;4994454;28;20060;-57
2023/05/07 02:40:10;;;;;;;2.90;2.53;;;23.10;44.90;;;;;;4994570;28;20057;-57
2023/05/07 02:42:38;;;;;;;3.10;2.80;;;23.10;44.90;;;;;;4994549;28;20053;-57
2023/05/07 02:45:06;;;;;;;3.13;2.83;;;23.10;44.90;;;;;;4993095;28;20060;-57
2023/05/07 02:47:33;;;;;;;2.70;2.50;;;23.10;44.90;;;;;;4994784;28;20113;-57
2023/05/07 02:50:00;;;;;;;3.05;2.75;;;23.10;44.90;;;;;;4993974;28;20050;-57
2023/05/07 02:52:27;;;;;;;3.00;2.80;;;23.10;44.90;;;;;;4994183;28;20046;-58
2023/05/07 02:54:54;;;;;;;3.10;2.80;;;23.10;45.00;;;;;;4993941;28;20100;-58
2023/05/07 02:57:21;;;;;;;2.95;2.75;;;23.10;45.00;;;;;;4993940;28;20059;-57
2023/05/07 02:59:49;;;;;;;3.20;2.90;;;23.10;45.00;;;;;;4993776;28;20054;-57
2023/05/07 03:02:16;;;;;;;2.78;2.58;;;23.10;45.00;;;;;;4994071;28;20050;-58
2023/05/07 03:04:43;;;;;;;3.00;2.70;;;23.10;45.00;;;;;;4993900;28;20046;-57
2023/05/07 03:07:10;;;;;;;2.90;2.70;;;23.10;45.10;;;;;;4993718;28;20502;-57
2023/05/07 03:09:37;;;;;;;2.55;2.35;;;23.10;45.10;;;;;;4996699;28;20046;-57
2023/05/07 03:12:04;;;;;;;2.88;2.63;;;23.10;45.20;;;;;;5012912;28;20056;-57
2023/05/07 03:14:31;;;;;;;2.70;2.50;;;23.10;45.20;;;;;;5013647;28;20049;-57
2023/05/07 03:16:59;;;;;;;3.35;2.88;;;23.10;45.30;;;;;;5012865;28;20578;-57
2023/05/07 03:19:26;;;;;;;2.75;2.55;;;23.00;45.20;;;;;;5013593;28;20056;-57
2023/05/07 03:21:53;;;;;;;2.85;2.65;;;23.00;45.20;;;;;;5013383;28;20046;-57
2023/05/07 03:24:20;;;;;;;2.60;2.40;;;23.00;45.20;;;;;;5013093;28;20081;-57
2023/05/07 03:26:47;;;;;;;3.45;2.78;;;23.00;45.20;;;;;;5013184;28;20069;-58
2023/05/07 03:29:15;;;;;;;3.08;2.78;;;23.00;45.30;;;;;;5012616;28;20393;-57
2023/05/07 03:31:42;;;;;;;2.80;2.50;;;23.10;45.30;;;;;;5013180;28;20046;-57
2023/05/07 03:34:09;;;;;;;2.90;2.70;;;23.00;45.20;;;;;;5013233;28;20053;-57
2023/05/07 03:36:36;;;;;;;2.65;2.45;;;23.00;45.20;;;;;;5003639;28;20053;-58
2023/05/07 03:39:03;;;;;;;3.10;2.83;;;23.10;45.30;;;;;;5009770;28;20134;-57
2023/05/07 03:41:32;;;;;;;3.35;3.05;;;23.10;45.30;;;;;;5013684;28;20042;-58
2023/05/07 03:43:59;;;;;;;2.95;2.67;;;23.10;45.30;;;;;;5013010;28;20379;-57
2023/05/07 03:46:26;;;;;;;2.80;2.60;;;23.10;45.20;;;;;;5013131;28;20054;-57
2023/05/07 03:48:53;;;;;;;3.17;2.92;;;23.10;45.20;;;;;;5013582;28;20073;-57
2023/05/07 03:51:20;;;;;;;2.97;2.78;;;23.10;45.20;;;;;;5013049;28;20059;-57
2023/05/07 03:53:47;;;;;;;2.92;2.72;;;23.10;45.20;;;;;;5013372;28;20052;-57
2023/05/07 03:56:14;;;;;;;3.08;2.80;;;23.10;45.10;;;;;;5012471;28;20054;-57
2023/05/07 03:58:44;;;;;;;3.00;2.80;;;23.10;45.10;;;;;;5015969;28;20089;-57
2023/05/07 04:01:11;;;;;;;2.95;2.72;;;23.10;45.10;;;;;;5016642;28;20358;-57
2023/05/07 04:03:39;;;;;;;3.33;3.03;;;23.10;45.00;;;;;;5016768;28;20132;-57
2023/05/07 04:06:06;;;;;;;3.03;2.83;;;23.10;45.00;;;;;;5017154;28;20050;-57
2023/05/07 04:08:33;;;;;;;3.28;2.97;;;23.10;45.00;;;;;;5017127;28;20130;-57
2023/05/07 04:11:00;;;;;;;3.00;2.80;;;23.10;45.00;;;;;;5016931;28;20053;-57
2023/05/07 04:13:27;;;;;;;3.10;2.80;;;23.10;45.00;;;;;;5016830;28;20074;-57
2023/05/07 04:15:55;;;;;;;3.05;2.75;;;23.20;45.00;;;;;;5016918;28;20053;-57
2023/05/07 04:18:22;;;;;;;2.92;2.72;;;23.20;44.90;;;;;;5016599;28;20042;-57
2023/05/07 04:20:49;;;;;;;2.67;2.47;;;23.20;44.90;;;;;;5016847;28;20068;-57
2023/05/07 04:23:16;;;;;;;3.30;2.75;;;23.20;44.90;;;;;;5016260;28;20205;-57
2023/05/07 04:25:44;;;;;;;3.67;2.63;;;23.20;44.80;;;;;;5016309;28;20081;-57
2023/05/07 04:28:11;;;;;;;2.33;2.22;;;23.30;44.80;;;;;;5016813;28;20046;-57
2023/05/07 04:30:39;;;;;;;2.63;2.42;;;23.30;44.80;;;;;;5016442;28;20149;-60
2023/05/07 04:33:06;;;;;;;2.80;2.53;;;23.30;44.80;;;;;;5016264;28;20057;-57
2023/05/07 04:35:34;;;;;;;3.55;3.25;;;23.30;44.70;;;;;;5015810;28;20494;-57
2023/05/07 04:38:01;;;;;;;3.38;3.08;;;23.30;44.80;;;;;;5016198;28;20046;-56
2023/05/07 04:40:28;;;;;;;2.92;2.72;;;23.30;44.80;;;;;;5016151;28;20050;-57
2023/05/07 04:42:55;;;;;;;3.42;3.13;;;23.40;44.80;;;;;;5016215;28;20057;-57
2023/05/07 04:45:23;;;;;;;3.08;2.67;;;23.40;44.80;;;;;;5015797;28;20092;-57
2023/05/07 04:47:50;;;;;;;3.45;3.15;;;23.40;44.80;;;;;;5014587;28;20387;-57
2023/05/07 04:50:19;;;;;;;3.70;3.40;;;23.40;44.80;;;;;;5016061;28;20449;-57
2023/05/07 04:52:46;;;;;;;3.05;2.85;;;23.50;44.90;;;;;;5016260;28;20112;-58
2023/05/07 04:55:13;;;;;;;3.40;3.10;;;23.50;44.90;;;;;;5015341;28;20050;-57
2023/05/07 04:57:41;;;;;;;3.95;3.50;;;23.50;45.00;;;;;;5016169;28;20046;-57
2023/05/07 05:00:08;;;;;;;3.45;3.20;;;23.50;45.00;;;;;;5015935;28;20497;-57
2023/05/07 05:02:36;;;;;;;3.40;3.10;;;23.50;45.10;;;;;;5015950;28;20061;-57
2023/05/07 05:05:04;;;;;;;3.28;2.97;;;23.60;45.10;;;;;;5015885;28;20132;-57
2023/05/07 05:07:31;;;;;;;3.47;3.17;;;23.60;45.10;;;;;;5015359;28;20068;-57
2023/05/07 05:09:58;;;;;;;3.72;3.30;;;23.60;45.20;;;;;;5014614;28;20136;-57
2023/05/07 05:12:25;;;;;;;4.22;3.92;;;23.60;45.20;;;;;;5015583;28;20319;-57
2023/05/07 05:14:52;;;;;;;3.25;3.05;;;23.60;45.20;;;;;;5015659;28;20049;-57
2023/05/07 05:17:19;;;;;;;3.30;3.00;;;23.60;45.20;;;;;;5015751;28;20417;-57
2023/05/07 05:19:47;;;;;;;3.40;3.20;;;23.70;45.30;;;;;;5015735;28;20084;-56
2023/05/07 05:22:14;;;;;;;3.70;3.40;;;23.70;45.30;;;;;;5015707;28;20516;-57
2023/05/07 05:24:41;;;;;;;3.35;3.15;;;23.70;45.30;;;;;;5018490;28;20049;-57
2023/05/07 05:27:08;;;;;;;3.60;3.30;;;23.70;45.40;;;;;;5012498;28;20414;-57
2023/05/07 05:29:35;;;;;;;3.72;3.42;;;23.70;45.40;;;;;;5013326;28;20042;-57
2023/05/07 05:32:02;;;;;;;3.08;2.88;;;23.80;45.50;;;;;;5014886;28;20058;-57
2023/05/07 05:34:29;;;;;;;4.00;3.65;;;23.80;45.50;;;;;;5018855;28;20045;-57
2023/05/07 05:36:56;;;;;;;4.25;3.80;;;23.80;45.50;;;;;;5010729;28;20214;-57
2023/05/07 05:39:23;;;;;;;3.90;3.50;;;23.90;45.50;;;;;;5014735;28;20057;-57
2023/05/07 05:41:50;;;;;;;3.80;3.50;;;23.90;45.50;;;;;;5014787;28;20048;-57
2023/05/07 05:44:18;;;;;;;4.05;3.75;;;23.90;45.40;;;;;;5015291;28;20049;-57
2023/05/07 05:46:45;;;;;;;4.45;4.05;;;23.90;45.40;;;;;;5014633;28;20046;-57
2023/05/07 05:49:12;;;;;;;3.90;3.60;;;23.90;45.40;;;;;;5012771;28;20050;-57
2023/05/07 05:51:40;;;;;;;4.25;3.85;;;23.90;45.40;;;;;;5014835;28;20057;-57
2023/05/07 05:54:07;;;;;;;3.83;3.50;;;24.00;45.50;;;;;;5013333;28;20046;-57
2023/05/07 05:56:34;;;;;;;4.25;3.83;;;23.90;45.40;;;;;;4994597;28;20054;-57
2023/05/07 05:59:01;;;;;;;4.18;3.78;;;24.00;45.50;;;;;;4994880;28;20046;-57
2023/05/07 06:01:28;;;;;;;5.50;4.30;;;24.00;45.40;;;;;;4993517;28;20081;-57
2023/05/07 06:03:56;;;;;;;5.10;4.35;;;24.00;45.40;;;;;;4994968;28;20351;-57
2023/05/07 06:06:23;;;;;;;4.28;3.88;;;24.00;45.30;;;;;;4994662;28;20052;-57
2023/05/07 06:08:50;;;;;;;4.50;4.10;;;24.10;45.30;;;;;;4994407;28;20057;-57
2023/05/07 06:11:17;;;;;;;5.15;4.57;;;24.10;45.20;;;;;;4993732;28;20050;-57
2023/05/07 06:13:44;;;;;;;4.57;4.18;;;24.10;45.20;;;;;;4994276;28;20058;-57
2023/05/07 06:16:11;;;;;;;4.05;3.70;;;24.20;45.20;;;;;;4994807;28;20057;-57
2023/05/07 06:18:38;;;;;;;5.10;4.40;;;24.20;45.10;;;;;;4994838;28;20547;-57
2023/05/07 06:21:06;;;;;;;4.25;3.85;;;24.30;45.10;;;;;;4993581;28;20054;-57
2023/05/07 06:23:33;;;;;;;4.10;3.80;;;24.30;45.00;;;;;;4993183;28;20046;-57
2023/05/07 06:26:00;;;;;;;4.10;3.70;;;24.30;44.90;;;;;;4993769;28;20054;-57
2023/05/07 06:28:27;;;;;;;4.82;4.43;;;24.40;44.90;;;;;;4994380;28;20078;-57
2023/05/07 06:30:54;;;;;;;4.10;3.70;;;24.40;44.80;;;;;;4994423;28;20050;-57
2023/05/07 06:33:21;;;;;;;5.28;4.20;;;24.40;44.80;;;;;;4993310;28;20057;-57
2023/05/07 06:35:48;;;;;;;3.90;3.60;;;24.50;44.80;;;;;;4993830;28;20517;-57
2023/05/07 06:38:15;;;;;;;4.07;3.67;;;24.50;44.70;;;;;;4994131;28;20479;-57
2023/05/07 06:40:42;;;;;;;4.18;3.78;;;24.50;44.70;;;;;;4994656;28;20051;-57
2023/05/07 06:43:10;;;;;;;3.92;3.63;;;24.50;44.70;;;;;;4992958;28;20069;-57
2023/05/07 06:45:37;;;;;;;3.72;3.42;;;24.60;44.70;;;;;;4994571;28;20062;-57
2023/05/07 06:48:05;;;;;;;3.80;3.50;;;24.60;44.60;;;;;;4993223;28;20054;-57
2023/05/07 06:50:32;;;;;;;3.67;3.22;;;24.60;44.50;;;;;;5018658;28;20144;-57
2023/05/07 06:52:59;;;;;;;3.78;3.47;;;24.70;44.50;;;;;;5023547;28;20045;-57
2023/05/07 06:55:26;;;;;;;3.97;3.67;;;24.70;44.40;;;;;;5028299;28;20054;-57
2023/05/07 06:57:53;;;;;;;3.60;3.30;;;24.70;44.40;;;;;;5016644;28;20398;-57
2023/05/07 07:00:20;;;;;;;3.30;3.10;;;24.70;44.40;;;;;;5032688;28;20379;-57
2023/05/07 07:02:48;;;;;;;4.57;3.20;;;24.70;44.40;;;;;;5032376;28;20057;-57
2023/05/07 07:05:15;;;;;;;4.13;3.72;;;24.70;44.40;;;;;;5032917;28;20053;-57
2023/05/07 07:07:42;;;;;;;4.13;3.65;;;24.70;44.40;;;;;;5033657;28;20064;-57
2023/05/07 07:10:09;;;;;;;3.60;3.30;;;24.70;44.40;;;;;;5014263;28;20494;-57
2023/05/07 07:12:37;;;;;;;3.92;3.53;;;24.70;44.40;;;;;;5012979;28;20045;-57
2023/05/07 07:15:05;;;;;;;3.40;3.20;;;24.70;44.50;;;;;;5013572;28;20053;-57
2023/05/07 07:17:32;;;;;;;3.92;3.60;;;24.70;44.60;;;;;;4997810;28;20052;-57
2023/05/07 07:19:59;;;;;;;3.28;3.00;;;24.60;44.60;;;;;;4992892;28;20138;-57
2023/05/07 07:22:26;;;;;;;3.92;3.63;;;24.60;44.80;;;;;;4993690;28;20050;-57
2023/05/07 07:24:53;;;;;;;3.42;3.22;;;24.60;44.90;;;;;;4993615;28;20065;-58
2023/05/07 07:27:20;;;;;;;3.88;3.47;;;24.60;45.00;;;;;;4994041;28;20403;-61
2023/05/07 07:29:47;;;;;;;4.50;3.63;;;24.60;45.10;;;;;;4992575;28;20407;-57
2023/05/07 07:32:14;;;;;;;4.25;3.25;;;24.60;45.10;;;;;;4997518;28;20483;-57
2023/05/07 07:34:41;;;;;;;3.92;3.60;;;24.60;45.20;;;;;;4999491;28;20138;-60
2023/05/07 07:37:08;;;;;;;4.55;4.05;;;24.60;45.20;;;;;;4999997;28;20101;-60
2023/05/07 07:39:37;;;;;;;4.13;3.72;;;24.60;45.30;;;;;;4999416;28;20042;-65
2023/05/07 07:42:04;;;;;;;3.70;3.40;;;24.70;45.30;;;;;;4999096;28;20054;-58
2023/05/07 07:44:31;;;;;;;3.33;3.13;;;24.70;45.30;;;;;;4999453;28;20051;-61
2023/05/07 07:46:58;;;;;;;3.53;3.22;;;24.70;45.40;;;;;;4999367;28;20125;-59
2023/05/07 07:49:26;;;;;;;3.30;3.10;;;24.70;45.40;;;;;;4998893;28;20046;-60
2023/05/07 07:51:53;;;;;;;3.53;3.22;;;24.70;45.40;;;;;;4999525;28;20050;-64
2023/05/07 07:54:20;;;;;;;4.07;3.67;;;24.70;45.50;;;;;;4999059;28;20054;-58
2023/05/07 07:56:47;;;;;;;3.63;3.33;;;24.70;45.50;;;;;;5000300;28;20062;-64
2023/05/07 07:59:18;;;;;;;3.17;2.97;;;24.70;45.50;;;;;;4999246;28;20050;-58
2023/05/07 08:01:48;;;;;;;4.00;3.58;;;24.70;45.60;;;;;;4999795;28;20069;-58
2023/05/07 08:04:15;;;;;;;3.47;2.90;;;24.70;45.60;;;;;;4999426;28;20046;-58
2023/05/07 08:06:42;;;;;;;3.75;3.45;;;24.70;45.60;;;;;;4998879;28;20100;-61
2023/05/07 08:09:09;;;;;;;3.63;3.33;;;24.70;45.70;;;;;;4999569;28;20046;-61
2023/05/07 08:11:36;;;;;;;3.05;2.80;;;24.70;45.70;;;;;;4999052;28;20051;-59
2023/05/07 08:14:03;;;;;;;4.05;3.05;;;24.70;45.60;;;;;;4999358;28;20046;-64
2023/05/07 08:16:31;;;;;;;3.30;3.00;;;24.70;45.70;;;;;;4998832;28;20088;-58
2023/05/07 08:18:58;;;;;;;3.20;2.92;;;24.70;45.70;;;;;;4999271;28;20047;-58
2023/05/07 08:21:26;;;;;;;3.13;2.92;;;24.70;45.70;;;;;;4999679;28;20050;-58
2023/05/07 08:23:53;;;;;;;3.00;2.80;;;24.70;45.70;;;;;;4999445;28;20054;-57
2023/05/07 08:26:20;;;;;;;3.13;2.83;;;24.70;45.70;;;;;;4998754;28;20050;-57
2023/05/07 08:28:47;;;;;;;3.30;3.10;;;24.70;45.70;;;;;;4999164;28;20208;-57
2023/05/07 08:31:14;;;;;;;3.45;3.20;;;24.70;45.70;;;;;;4999405;28;20046;-57
2023/05/07 08:33:41;;;;;;;3.20;2.97;;;24.70;45.70;;;;;;4999079;28;20054;-58
2023/05/07 08:36:08;;;;;;;2.70;2.50;;;24.70;45.70;;;;;;4999168;28;20144;-57
2023/05/07 08:38:36;;;;;;;2.97;2.78;;;24.80;45.70;;;;;;4999162;28;20050;-58
2023/05/07 08:41:03;;;;;;;3.20;3.00;;;24.70;45.70;;;;;;4999811;28;20058;-58
2023/05/07 08:43:32;;;;;;;3.30;3.00;;;24.80;45.70;;;;;;4997370;28;20057;-57
2023/05/07 08:46:02;;;;;;;2.97;2.78;;;24.80;45.70;;;;;;4996252;28;20050;-58
2023/05/07 08:48:30;;;;;;;4.30;2.58;;;24.80;45.60;;;;;;4996084;28;20086;-57
2023/05/07 08:50:59;;;;;;;3.78;2.65;;;24.90;45.60;;;;;;4995341;28;20058;-57
2023/05/07 08:53:26;;;;;;;3.22;3.03;;;24.90;45.50;;;;;;4996434;28;20563;-58
2023/05/07 08:55:53;;;;;;;2.58;2.47;;;24.90;45.40;;;;;;4996457;28;20050;-57
2023/05/07 08:58:20;;;;;;;2.72;2.53;;;24.90;45.30;;;;;;4996098;28;20137;-57
2023/05/07 09:00:47;;;;;;;2.75;2.55;;;25.00;45.30;;;;;;4995286;28;20054;-57
2023/05/07 09:03:14;;;;;;;3.00;2.80;;;25.00;45.20;;;;;;4995712;28;20414;-58
2023/05/07 09:05:43;;;;;;;2.63;2.42;;;25.00;45.20;;;;;;4995378;28;20074;-57
2023/05/07 09:08:14;;;;;;;2.28;2.17;;;25.00;45.20;;;;;;4995538;28;20046;-57
2023/05/07 09:10:41;;;;;;;2.80;2.60;;;25.10;45.20;;;;;;4995725;28;20133;-56
2023/05/07 09:13:10;;;;;;;3.28;2.97;;;25.10;45.20;;;;;;4995163;28;20052;-58
2023/05/07 09:15:37;;;;;;;2.92;2.72;;;25.10;45.20;;;;;;4995526;28;20133;-58
2023/05/07 09:18:04;;;;;;;3.00;2.80;;;25.10;45.20;;;;;;5006399;28;20133;-58
2023/05/07 09:20:32;;;;;;;3.03;2.75;;;25.10;45.20;;;;;;4997824;28;20475;-57
2023/05/07 09:22:59;;;;;;;3.75;2.97;;;25.10;45.20;;;;;;5000615;28;20383;-58
2023/05/07 09:25:31;;;;;;;3.25;2.95;;;25.10;45.20;;;;;;5006029;28;20137;-59
2023/05/07 09:27:58;;;;;;;3.42;3.13;;;25.10;45.20;;;;;;4995286;28;20052;-58
2023/05/07 09:30:30;;;;;;;2.67;2.50;;;25.10;45.20;;;;;;4995056;28;20418;-57
2023/05/07 09:32:59;;;;;;;3.30;3.08;;;25.10;45.20;;;;;;4995628;28;20409;-57
2023/05/07 09:35:29;;;;;;;2.53;2.40;;;25.00;45.20;;;;;;4996014;28;20100;-57
2023/05/07 09:38:00;;;;;;;3.05;2.85;;;25.10;45.20;;;;;;5015093;28;20449;-57
2023/05/07 09:40:31;;;;;;;2.80;2.60;;;25.10;45.20;;;;;;5013201;28;20088;-58
2023/05/07 09:43:10;;;;;;;3.10;2.90;;;25.10;45.20;;;;;;5013939;28;20553;-57
2023/05/07 09:45:38;;;;;;;2.90;2.70;;;25.10;45.20;;;;;;5013118;28;20265;-57
2023/05/07 09:48:07;;;;;;;2.58;2.38;;;25.10;45.20;;;;;;5014082;28;20045;-58
2023/05/07 09:50:47;;;;;;;2.55;2.38;;;25.10;45.20;;;;;;5014149;28;20049;-57
2023/05/07 09:53:15;;;;;;;2.90;2.70;;;25.10;45.10;;;;;;5014216;28;20405;-57
2023/05/07 09:55:44;;;;;;;2.85;2.65;;;25.10;45.20;;;;;;5013579;28;20111;-57
2023/05/07 09:58:14;;;;;;;2.67;2.47;;;25.10;45.10;;;;;;5014266;28;20053;-57
2023/05/07 10:00:42;;;;;;;2.42;2.22;;;25.10;45.10;;;;;;5014016;28;20511;-57
2023/05/07 10:03:10;;;;;;;2.42;2.33;;;25.10;45.10;;;;;;5013533;28;20045;-57
2023/05/07 10:05:39;;;;;;;2.78;2.55;;;25.20;45.20;;;;;;5014084;28;20050;-58
2023/05/07 10:08:07;;;;;;;3.17;2.97;;;25.10;45.00;;;;;;5014622;28;20062;-56
2023/05/07 10:10:35;;;;;;;3.00;2.80;;;25.20;45.10;;;;;;5014404;28;20504;-58
2023/05/07 10:13:05;;;;;;;5.28;2.85;;;25.20;45.00;;;;;;5014409;28;20045;-57
2023/05/07 10:15:34;;;;;;;2.50;2.25;;;25.20;45.00;;;;;;5014552;28;20088;-57
2023/05/07 10:18:03;;;;;;;2.60;2.40;;;25.10;45.00;;;;;;5014465;28;20132;-58
2023/05/07 10:20:32;;;;;;;2.72;2.53;;;25.20;45.00;;;;;;5014122;28;20125;-57
2023/05/07 10:23:03;;;;;;;2.30;2.20;;;25.20;45.00;;;;;;5013537;28;20060;-56
2023/05/07 10:25:32;;;;;;;2.72;2.53;;;25.20;44.90;;;;;;5014080;28;20494;-57
2023/05/07 10:28:04;;;;;;;2.80;2.60;;;25.30;45.00;;;;;;5014276;28;20046;-56
2023/05/07 10:30:48;;;;;;;2.70;2.50;;;25.30;44.90;;;;;;5013971;28;20132;-57
2023/05/07 10:33:18;;;;;;;2.40;2.22;;;25.30;44.80;;;;;;5014147;28;20046;-56
2023/05/07 10:35:47;;;;;;;2.45;2.30;;;25.30;44.70;;;;;;5013937;28;20054;-57
2023/05/07 10:38:14;;;;;;;2.80;2.60;;;25.40;44.70;;;;;;5014102;28;20504;-57
2023/05/07 10:40:41;;;;;;;3.58;2.28;;;25.40;44.60;;;;;;5013692;28;20050;-58
2023/05/07 10:43:09;;;;;;;2.72;2.53;;;25.40;44.50;;;;;;5013251;28;20046;-56
2023/05/07 10:45:37;;;;;;;2.60;2.40;;;25.50;44.50;;;;;;5004916;28;20049;-57
2023/05/07 10:48:09;;;;;;;2.85;2.17;;;25.50;44.40;;;;;;5005555;28;20053;-56
2023/05/07 10:51:14;;;;;;;;;;;25.50;44.30;;;;;;5012901;28;20121;-57
2023/05/07 10:53:41;;;;;;;2.70;2.45;;;25.50;44.20;;;;;;5021595;28;19967;-58
2023/05/07 10:56:28;;;;;;;2.38;2.20;;;25.60;44.20;;;;;;5010736;28;20050;-57
2023/05/07 10:58:55;;;;;;;2.65;2.45;;;25.60;44.10;;;;;;5006431;28;20402;-57
2023/05/07 11:01:50;;;;;;;2.50;2.30;;;25.60;44.00;;;;;;5002063;28;20050;-55
2023/05/07 11:04:24;;;;;;;2.63;2.42;;;25.70;43.90;;;;;;5004354;28;20089;-58
2023/05/07 11:07:22;;;;;;;2.78;2.58;;;25.70;43.90;;;;;;5010236;28;20442;-57
2023/05/07 11:10:01;;;;;;;2.35;2.25;;;25.70;43.80;;;;;;5005979;28;20061;-57
2023/05/07 11:12:49;;;;;;;2.80;2.60;;;25.80;43.80;;;;;;5003312;28;20465;-57
2023/05/07 11:15:35;;;;;;;2.67;2.47;;;25.80;43.70;;;;;;5012444;28;20057;-57
2023/05/07 11:18:03;;;;;;;2.05;1.95;;;25.80;43.60;;;;;;5013833;28;20050;-57
2023/05/07 11:20:56;;;;;;;2.35;2.20;;;25.80;43.60;;;;;;5013401;28;20050;-57
2023/05/07 11:23:56;;;;;;;2.10;2.00;;;25.80;43.50;;;;;;5011982;28;20089;-57
2023/05/07 11:26:23;;;;;;;2.30;2.20;;;25.80;43.40;;;;;;5012785;28;20050;-57
2023/05/07 11:28:52;;;;;;;2.30;2.20;;;25.80;43.40;;;;;;5012569;28;20060;-58
2023/05/07 11:31:24;;;;;;;2.42;2.22;;;25.80;43.50;;;;;;5012123;28;20124;-57
2023/05/07 11:33:53;;;;;;;2.70;2.55;;;25.80;43.50;;;;;;5013321;28;20053;-57
2023/05/07 11:36:22;;;;;;;2.70;2.50;;;25.80;43.60;;;;;;5013372;28;20072;-57
2023/05/07 11:38:49;;;;;;;2.67;2.47;;;25.70;43.60;;;;;;5013247;28;20057;-58
2023/05/07 11:41:18;;;;;;;2.53;2.33;;;25.70;43.70;;;;;;5013446;28;20058;-57
2023/05/07 11:43:59;;;;;;;2.63;2.47;;;25.70;43.80;;;;;;5013012;28;20045;-57
2023/05/07 11:46:27;;;;;;;2.85;2.55;;;25.70;43.80;;;;;;5012856;28;20042;-57
2023/05/07 11:48:56;;;;;;;2.58;2.38;;;25.60;43.80;;;;;;5012236;28;20085;-57
2023/05/07 11:51:25;;;;;;;2.08;1.98;;;25.60;43.90;;;;;;5011925;28;20046;-58
2023/05/07 11:53:53;;;;;;;2.55;2.35;;;25.60;43.90;;;;;;5012387;28;20056;-57
2023/05/07 11:56:20;;;;;;;2.58;2.47;;;25.60;43.90;;;;;;5011551;28;20097;-57
2023/05/07 11:58:49;;;;;;;2.67;2.47;;;25.60;43.90;;;;;;5013143;28;20532;-58
2023/05/07 12:01:16;;;;;;;2.45;2.35;;;25.60;43.90;;;;;;5013006;28;20049;-57
2023/05/07 12:03:47;;;;;;;2.53;2.35;;;25.70;44.00;;;;;;5012111;28;20054;-57
2023/05/07 12:06:17;;;;;;;2.30;2.17;;;25.60;44.00;;;;;;5011881;28;20058;-57
2023/05/07 12:08:45;;;;;;;2.60;2.40;;;25.60;44.00;;;;;;5012518;28;20049;-57
2023/05/07 12:11:23;;;;;;;2.25;2.15;;;25.60;44.00;;;;;;5011501;28;20707;-57
2023/05/07 12:13:50;;;;;;;2.10;2.00;;;25.60;44.10;;;;;;5013283;28;20129;-58
2023/05/07 12:16:19;;;;;;;2.38;2.25;;;25.60;44.20;;;;;;5013029;28;20149;-56
2023/05/07 12:18:46;;;;;;;2.10;2.00;;;25.50;44.30;;;;;;5014488;28;20052;-57
2023/05/07 12:21:14;;;;;;;2.50;2.30;;;25.50;44.30;;;;;;5020039;28;20417;-57
2023/05/07 12:23:41;;;;;;;2.60;2.40;;;25.50;44.50;;;;;;5032341;28;20052;-57
2023/05/07 12:26:09;;;;;;;2.35;2.25;;;25.50;44.60;;;;;;5022074;28;20046;-57
2023/05/07 12:28:41;;;;;;;2.83;2.63;;;25.40;44.60;;;;;;5021410;28;20056;-57
2023/05/07 12:31:08;;;;;;;1.88;1.77;;;25.40;44.70;;;;;;5029269;28;20457;-57
2023/05/07 12:33:36;;;;;;;2.38;2.28;;;25.50;44.80;;;;;;5012699;28;20449;-58
2023/05/07 12:36:07;;;;;;;2.10;2.00;;;25.50;44.90;;;;;;5016944;28;20129;-57
2023/05/07 12:38:40;;;;;;;3.03;2.20;;;25.50;44.90;;;;;;5014720;28;20124;-57
2023/05/07 12:41:10;;;;;;;2.30;2.20;;;25.60;44.90;;;;;;5014050;28;20121;-56
2023/05/07 12:43:37;;;;;;;2.90;2.70;;;25.60;45.00;;;;;;5016562;28;20054;-57
2023/05/07 12:46:06;;;;;;;2.80;2.60;;;25.70;44.90;;;;;;5016174;28;20509;-58
2023/05/07 12:48:35;;;;;;;2.45;2.35;;;25.70;44.90;;;;;;5015496;28;20056;-57
2023/05/07 12:51:03;;;;;;;2.33;2.13;;;25.80;44.90;;;;;;5015924;28;20054;-57
2023/05/07 12:53:31;;;;;;;2.50;2.17;;;25.80;44.90;;;;;;5014573;28;20046;-58
2023/05/07 12:55:59;;;;;;;2.40;2.30;;;25.80;44.90;;;;;;5016015;28;20052;-57